createdAt,value
2018-07-10T00:00:02.367Z,1.53
2018-07-10T00:02:41.075Z,2.13
2018-07-10T00:05:26.066Z,2.10
2018-07-10T00:10:41.995Z,1.90
2018-07-10T00:13:09.390Z,1.90
2018-07-10T00:15:38.249Z,2.80
2018-07-10T00:20:55.686Z,2.53
2018-07-10T00:23:22.946Z,2.20
2018-07-10T00:25:50.196Z,2.50
2018-07-10T00:28:17.495Z,2.17
2018-07-10T00:30:44.753Z,2.57
2018-07-10T00:33:12.030Z,2.10
2018-07-10T00:35:39.326Z,2.50
2018-07-10T00:38:17.894Z,2.30
2018-07-10T00:40:45.210Z,2.37
2018-07-10T00:43:12.489Z,2.40
2018-07-10T00:45:39.986Z,2.03
2018-07-10T00:48:07.377Z,2.10
2018-07-10T00:50:35.014Z,2.17
2018-07-10T00:53:02.339Z,2.03
2018-07-10T00:55:29.679Z,2.37
2018-07-10T00:57:57.270Z,2.40
2018-07-10T01:00:28.541Z,2.50
2018-07-10T01:02:56.257Z,2.37
2018-07-10T01:05:23.551Z,2.53
2018-07-10T01:07:50.879Z,2.97
2018-07-10T01:10:18.117Z,2.70
2018-07-10T01:12:45.374Z,2.73
2018-07-10T01:15:12.635Z,2.63
2018-07-10T01:17:39.934Z,3.20
2018-07-10T01:20:07.257Z,3.63
2018-07-10T01:22:34.546Z,3.67
2018-07-10T01:25:01.829Z,3.53
2018-07-10T01:27:29.122Z,3.23
2018-07-10T01:29:56.424Z,3.80
2018-07-10T01:32:23.730Z,3.87
2018-07-10T01:34:51.022Z,3.30
2018-07-10T01:37:18.329Z,3.37
2018-07-10T01:39:45.598Z,3.67
2018-07-10T01:42:12.859Z,3.57
2018-07-10T01:44:40.130Z,3.37
2018-07-10T01:47:07.441Z,3.70
2018-07-10T01:49:34.722Z,3.37
2018-07-10T01:52:02.036Z,3.33
2018-07-10T01:54:29.316Z,3.90
2018-07-10T01:56:56.611Z,3.50
2018-07-10T01:59:24.030Z,3.13
2018-07-10T02:01:51.395Z,3.27
2018-07-10T02:04:18.721Z,3.20
2018-07-10T02:06:46.019Z,2.90
2018-07-10T02:09:13.326Z,2.80
2018-07-10T02:11:40.635Z,2.63
2018-07-10T02:14:08.041Z,2.70
2018-07-10T02:16:35.283Z,3.00
2018-07-10T02:19:03.094Z,3.03
2018-07-10T02:21:30.414Z,2.90
2018-07-10T02:23:57.758Z,3.47
2018-07-10T02:26:26.152Z,3.47
2018-07-10T02:28:54.262Z,3.50
2018-07-10T02:31:21.585Z,2.57
2018-07-10T02:33:49.486Z,2.97
2018-07-10T02:36:17.219Z,2.50
2018-07-10T02:38:47.631Z,3.00
2018-07-10T02:41:19.064Z,3.00
2018-07-10T02:43:54.337Z,2.80
2018-07-10T02:46:21.893Z,2.83
2018-07-10T02:48:49.467Z,3.17
2018-07-10T02:51:16.915Z,3.40
2018-07-10T02:53:45.273Z,3.23
2018-07-10T02:56:14.239Z,3.57
2018-07-10T02:58:41.522Z,3.43
2018-07-10T03:01:08.894Z,5.17
2018-07-10T03:03:39.409Z,3.80
2018-07-10T03:06:06.699Z,3.50
2018-07-10T03:08:34.259Z,4.23
2018-07-10T03:11:01.685Z,4.37
2018-07-10T03:13:29.045Z,4.23
2018-07-10T03:15:56.384Z,4.90
2018-07-10T03:18:25.917Z,4.50
2018-07-10T03:20:54.329Z,5.83
2018-07-10T03:23:22.761Z,5.33
2018-07-10T03:25:50.541Z,4.37
2018-07-10T03:28:17.909Z,4.60
2018-07-10T03:30:45.323Z,5.53
2018-07-10T03:33:12.758Z,5.10
2018-07-10T03:35:40.174Z,5.37
2018-07-10T03:38:08.215Z,6.07
2018-07-10T03:40:35.685Z,5.93
2018-07-10T03:43:03.098Z,5.27
2018-07-10T03:45:30.534Z,5.30
2018-07-10T03:47:58.983Z,5.53
2018-07-10T03:50:27.215Z,5.27
2018-07-10T03:52:54.669Z,5.67
2018-07-10T03:55:22.123Z,5.90
2018-07-10T03:57:53.252Z,5.43
2018-07-10T04:00:20.681Z,5.70
2018-07-10T04:02:50.156Z,5.50
2018-07-10T04:05:19.380Z,5.17
2018-07-10T04:07:48.935Z,5.53
2018-07-10T04:10:16.902Z,5.47
2018-07-10T04:12:46.659Z,5.83
2018-07-10T04:15:14.431Z,5.90
2018-07-10T04:17:53.943Z,5.53
2018-07-10T04:20:21.439Z,6.27
2018-07-10T04:22:53.341Z,5.93
2018-07-10T04:25:25.119Z,5.87
2018-07-10T04:27:59.507Z,5.07
2018-07-10T04:32:35.921Z,4.57
2018-07-10T04:35:03.601Z,4.13
2018-07-10T04:37:31.008Z,4.30
2018-07-10T04:39:59.197Z,4.17
2018-07-10T04:42:30.122Z,4.77
2018-07-10T04:45:02.339Z,4.40
2018-07-10T04:47:39.807Z,4.80
2018-07-10T04:50:17.125Z,5.00
2018-07-10T04:52:51.566Z,5.00
2018-07-10T04:55:19.056Z,4.70
2018-07-10T04:57:56.274Z,4.50
2018-07-10T05:00:24.447Z,4.27
2018-07-10T05:02:53.301Z,4.83
2018-07-10T05:05:20.760Z,4.87
2018-07-10T05:07:48.171Z,5.93
2018-07-10T05:10:17.495Z,5.30
2018-07-10T05:12:45.056Z,4.90
2018-07-10T05:15:12.734Z,6.70
2018-07-10T05:17:41.353Z,5.17
2018-07-10T05:20:08.627Z,5.63
2018-07-10T05:22:36.049Z,6.13
2018-07-10T05:25:03.509Z,5.03
2018-07-10T05:27:31.491Z,4.90
2018-07-10T05:29:58.955Z,4.30
2018-07-10T05:32:26.803Z,3.70
2018-07-10T05:34:55.239Z,4.00
2018-07-10T05:37:30.771Z,4.50
2018-07-10T05:39:59.684Z,4.27
2018-07-10T05:42:27.099Z,4.97
2018-07-10T05:44:54.575Z,3.87
2018-07-10T05:47:21.973Z,4.90
2018-07-10T05:49:49.386Z,3.60
2018-07-10T05:52:18.456Z,3.53
2018-07-10T05:54:45.862Z,3.33
2018-07-10T05:57:13.203Z,3.30
2018-07-10T05:59:40.541Z,3.27
2018-07-10T06:02:07.883Z,3.73
2018-07-10T06:04:38.872Z,4.40
2018-07-10T06:07:06.525Z,4.47
2018-07-10T06:09:34.014Z,3.57
2018-07-10T06:12:01.547Z,3.40
2018-07-10T06:14:28.962Z,4.00
2018-07-10T06:16:56.343Z,3.60
2018-07-10T06:19:23.738Z,4.13
2018-07-10T06:21:52.783Z,3.73
2018-07-10T06:24:29.469Z,3.87
2018-07-10T06:27:00.783Z,4.73
2018-07-10T06:29:51.729Z,4.87
2018-07-10T06:32:21.064Z,4.07
2018-07-10T06:34:50.933Z,4.13
2018-07-10T06:37:28.826Z,4.03
2018-07-10T06:39:56.374Z,3.00
2018-07-10T06:42:28.555Z,2.70
2018-07-10T06:44:56.384Z,2.80
2018-07-10T06:47:28.047Z,2.93
2018-07-10T06:49:55.459Z,3.20
2018-07-10T06:52:23.144Z,3.30
2018-07-10T06:55:15.025Z,3.63
2018-07-10T06:57:52.286Z,2.87
2018-07-10T07:00:20.417Z,3.37
2018-07-10T07:02:48.364Z,2.43
2018-07-10T07:05:15.745Z,2.77
2018-07-10T07:07:43.134Z,2.87
2018-07-10T07:10:14.358Z,3.10
2018-07-10T07:12:42.547Z,2.57
2018-07-10T07:15:17.302Z,3.13
2018-07-10T07:17:48.121Z,2.73
2018-07-10T07:20:15.578Z,2.60
2018-07-10T07:22:43.011Z,2.00
2018-07-10T07:25:10.315Z,3.07
2018-07-10T07:27:37.858Z,2.87
2018-07-10T07:30:05.304Z,2.43
2018-07-10T07:32:33.837Z,2.77
2018-07-10T07:35:02.334Z,2.77
2018-07-10T07:37:30.471Z,2.30
2018-07-10T07:39:58.150Z,2.77
2018-07-10T07:42:26.641Z,2.70
2018-07-10T07:44:54.059Z,2.23
2018-07-10T07:47:26.571Z,2.10
2018-07-10T07:49:54.438Z,2.60
2018-07-10T07:52:23.887Z,2.60
2018-07-10T07:54:51.292Z,2.73
2018-07-10T07:57:18.785Z,3.03
2018-07-10T07:59:46.208Z,2.10
2018-07-10T08:02:13.718Z,2.40
2018-07-10T08:04:41.056Z,2.43
2018-07-10T08:07:09.044Z,2.20
2018-07-10T08:09:36.445Z,2.37
2018-07-10T08:12:03.987Z,2.07
2018-07-10T08:14:32.215Z,1.67
2018-07-10T08:16:59.653Z,2.20
2018-07-10T08:19:27.040Z,1.53
2018-07-10T08:21:54.472Z,1.20
2018-07-10T08:24:23.303Z,1.57
2018-07-10T08:26:53.458Z,1.40
2018-07-10T08:29:21.664Z,1.57
2018-07-10T08:31:49.099Z,1.40
2018-07-10T08:34:16.485Z,1.33
2018-07-10T08:36:44.374Z,1.13
2018-07-10T08:39:11.915Z,1.47
2018-07-10T08:41:43.881Z,1.93
2018-07-10T08:44:11.749Z,1.63
2018-07-10T08:46:39.177Z,0.93
2018-07-10T08:49:06.677Z,1.40
2018-07-10T08:51:34.255Z,1.17
2018-07-10T08:54:01.716Z,2.07
2018-07-10T08:56:29.348Z,0.90
2018-07-10T08:58:57.433Z,1.40
2018-07-10T09:01:25.582Z,1.30
2018-07-10T09:03:53.055Z,2.27
2018-07-10T09:06:20.372Z,1.57
2018-07-10T09:08:47.823Z,1.90
2018-07-10T09:11:15.202Z,1.50
2018-07-10T09:13:42.659Z,1.60
2018-07-10T09:16:10.078Z,1.23
2018-07-10T09:18:37.464Z,1.40
2018-07-10T09:21:04.941Z,1.37
2018-07-10T09:23:32.804Z,1.43
2018-07-10T09:26:00.817Z,1.17
2018-07-10T09:28:31.244Z,1.10
2018-07-10T09:30:59.231Z,1.10
2018-07-10T09:33:26.760Z,1.80
2018-07-10T09:35:54.145Z,1.50
2018-07-10T09:38:21.716Z,1.53
2018-07-10T09:40:49.354Z,1.40
2018-07-10T09:43:16.781Z,1.50
2018-07-10T09:45:44.147Z,1.40
2018-07-10T09:48:11.584Z,1.27
2018-07-10T09:50:39.468Z,1.30
2018-07-10T09:53:06.998Z,1.70
2018-07-10T09:55:34.564Z,1.20
2018-07-10T09:58:02.173Z,1.70
2018-07-10T10:00:36.017Z,1.50
2018-07-10T10:03:04.073Z,1.30
2018-07-10T10:05:36.039Z,1.67
2018-07-10T10:08:03.660Z,1.67
2018-07-10T10:10:31.061Z,1.53
2018-07-10T10:12:58.403Z,1.33
2018-07-10T10:15:35.615Z,2.20
2018-07-10T10:18:05.325Z,1.20
2018-07-10T10:20:34.859Z,1.87
2018-07-10T10:23:03.294Z,1.70
2018-07-10T10:25:33.029Z,2.10
2018-07-10T10:28:00.438Z,1.53
2018-07-10T10:30:27.893Z,1.47
2018-07-10T10:32:55.334Z,2.97
2018-07-10T10:35:23.114Z,1.60
2018-07-10T10:37:50.531Z,1.20
2018-07-10T10:40:18.296Z,1.70
2018-07-10T10:42:45.667Z,1.57
2018-07-10T10:45:13.056Z,1.90
2018-07-10T10:47:40.395Z,1.30
2018-07-10T10:50:07.842Z,1.80
2018-07-10T10:52:35.261Z,1.50
2018-07-10T10:55:02.695Z,1.30
2018-07-10T10:57:33.470Z,1.30
2018-07-10T11:00:00.942Z,1.30
2018-07-10T11:02:28.438Z,1.60
2018-07-10T11:04:55.994Z,1.43
2018-07-10T11:07:23.390Z,1.70
2018-07-10T11:09:50.833Z,1.37
2018-07-10T11:12:18.489Z,1.50
2018-07-10T11:14:46.280Z,1.77
2018-07-10T11:17:19.948Z,1.33
2018-07-10T11:19:55.158Z,1.10
2018-07-10T11:22:23.271Z,1.30
2018-07-10T11:25:01.145Z,0.85
2018-07-10T11:27:34.269Z,1.32
2018-07-10T11:30:01.739Z,1.65
2018-07-10T11:32:29.075Z,1.92
2018-07-10T11:34:56.567Z,1.20
2018-07-10T11:37:24.088Z,1.32
2018-07-10T11:39:51.564Z,1.67
2018-07-10T11:42:18.887Z,1.40
2018-07-10T11:44:46.460Z,1.00
2018-07-10T11:47:16.285Z,0.90
2018-07-10T11:49:43.698Z,0.90
2018-07-10T11:52:11.287Z,0.90
2018-07-10T11:54:38.691Z,0.90
2018-07-10T11:57:06.630Z,0.82
2018-07-10T11:59:34.822Z,0.70
2018-07-10T12:02:02.751Z,1.20
2018-07-10T12:04:35.526Z,1.20
2018-07-10T12:07:02.931Z,1.15
2018-07-10T12:09:30.484Z,1.03
2018-07-10T12:11:57.965Z,1.57
2018-07-10T12:14:25.402Z,1.07
2018-07-10T12:16:54.955Z,1.20
2018-07-10T12:19:22.380Z,1.00
2018-07-10T12:21:49.817Z,0.90
2018-07-10T12:24:17.200Z,0.93
2018-07-10T12:26:44.675Z,0.97
2018-07-10T12:29:12.226Z,1.00
2018-07-10T12:31:39.639Z,0.80
2018-07-10T12:34:07.282Z,0.87
2018-07-10T12:36:35.639Z,0.90
2018-07-10T12:39:04.338Z,1.00
2018-07-10T12:41:31.791Z,0.80
2018-07-10T12:43:59.197Z,0.70
2018-07-10T12:46:26.678Z,0.57
2018-07-10T12:48:54.319Z,0.87
2018-07-10T12:51:22.570Z,0.80
2018-07-10T12:53:49.927Z,0.57
2018-07-10T12:56:17.478Z,1.03
2018-07-10T12:58:45.047Z,0.70
2018-07-10T13:01:12.441Z,0.83
2018-07-10T13:03:40.021Z,0.93
2018-07-10T13:06:07.897Z,1.13
2018-07-10T13:08:35.781Z,1.00
2018-07-10T13:11:03.375Z,1.03
2018-07-10T13:13:30.801Z,1.00
2018-07-10T13:15:58.201Z,0.80
2018-07-10T13:18:27.899Z,0.90
2018-07-10T13:20:55.350Z,1.00
2018-07-10T13:23:22.781Z,0.60
2018-07-10T13:25:50.159Z,0.77
2018-07-10T13:28:17.587Z,0.50
2018-07-10T13:30:45.251Z,0.60
2018-07-10T13:33:12.791Z,0.60
2018-07-10T13:35:45.700Z,0.83
2018-07-10T13:38:13.746Z,1.03
2018-07-10T13:40:41.157Z,0.60
2018-07-10T13:43:09.690Z,0.80
2018-07-10T13:45:37.172Z,1.03
2018-07-10T13:48:07.471Z,0.60
2018-07-10T13:50:35.071Z,0.63
2018-07-10T13:53:03.759Z,0.60
2018-07-10T13:55:31.785Z,0.70
2018-07-10T13:58:20.122Z,0.90
2018-07-10T14:00:50.129Z,0.40
2018-07-10T14:03:17.703Z,0.67
2018-07-10T14:05:45.126Z,0.60
2018-07-10T14:08:12.543Z,1.00
2018-07-10T14:10:39.956Z,1.60
2018-07-10T14:13:07.531Z,1.07
2018-07-10T14:15:34.986Z,0.90
2018-07-10T14:18:03.315Z,0.90
2018-07-10T14:20:54.101Z,1.17
2018-07-10T14:23:21.948Z,2.93
2018-07-10T14:25:50.527Z,0.80
2018-07-10T14:28:17.986Z,0.80
2018-07-10T14:30:45.458Z,0.77
2018-07-10T14:33:12.893Z,0.90
2018-07-10T14:35:40.266Z,0.80
2018-07-10T14:38:10.215Z,0.70
2018-07-10T14:40:42.430Z,0.70
2018-07-10T14:43:09.850Z,0.80
2018-07-10T14:45:38.136Z,0.80
2018-07-10T14:48:06.340Z,0.80
2018-07-10T14:50:33.856Z,0.80
2018-07-10T14:53:01.373Z,0.90
2018-07-10T14:55:30.166Z,1.20
2018-07-10T14:57:57.652Z,0.60
2018-07-10T15:00:25.104Z,0.70
2018-07-10T15:02:52.558Z,0.93
2018-07-10T15:05:19.981Z,1.03
2018-07-10T15:07:47.413Z,0.80
2018-07-10T15:10:14.919Z,0.63
2018-07-10T15:12:42.328Z,0.90
2018-07-10T15:15:10.349Z,1.00
2018-07-10T15:17:43.354Z,0.80
2018-07-10T15:20:10.739Z,0.63
2018-07-10T15:22:38.639Z,0.67
2018-07-10T15:25:06.125Z,0.50
2018-07-10T15:27:34.276Z,0.70
2018-07-10T15:30:01.670Z,0.50
2018-07-10T15:32:29.088Z,0.60
2018-07-10T15:34:57.789Z,0.90
2018-07-10T15:37:25.333Z,0.50
2018-07-10T15:39:53.349Z,0.60
2018-07-10T15:42:20.714Z,0.60
2018-07-10T15:44:48.192Z,0.60
2018-07-10T15:47:15.545Z,0.43
2018-07-10T15:49:43.560Z,0.70
2018-07-10T15:52:10.996Z,0.80
2018-07-10T15:54:38.451Z,0.70
2018-07-10T15:57:05.869Z,0.80
2018-07-10T15:59:33.294Z,1.00
2018-07-10T16:02:00.543Z,1.00
2018-07-10T16:04:27.822Z,1.10
2018-07-10T16:06:55.075Z,1.07
2018-07-10T16:09:22.729Z,0.90
2018-07-10T16:11:53.531Z,1.00
2018-07-10T16:14:20.816Z,1.03
2018-07-10T16:16:48.107Z,1.30
2018-07-10T16:19:20.590Z,1.20
2018-07-10T16:21:52.832Z,0.90
2018-07-10T16:24:20.475Z,1.20
2018-07-10T16:26:47.764Z,0.97
2018-07-10T16:29:18.412Z,0.70
2018-07-10T16:31:47.000Z,1.10
2018-07-10T16:34:14.361Z,1.20
2018-07-10T16:36:41.677Z,1.00
2018-07-10T16:39:09.011Z,1.03
2018-07-10T16:41:41.802Z,1.40
2018-07-10T16:44:09.390Z,0.73
2018-07-10T16:46:36.925Z,0.97
2018-07-10T16:49:13.481Z,1.03
2018-07-10T16:51:46.378Z,0.77
2018-07-10T16:54:13.828Z,1.00
2018-07-10T16:56:41.195Z,1.10
2018-07-10T16:59:08.603Z,0.90
2018-07-10T17:01:36.014Z,0.93
2018-07-10T17:04:04.072Z,0.80
2018-07-10T17:06:31.449Z,0.70
2018-07-10T17:08:58.877Z,0.97
2018-07-10T17:11:26.910Z,1.53
2018-07-10T17:13:54.337Z,1.00
2018-07-10T17:16:28.631Z,0.93
2018-07-10T17:18:56.533Z,0.77
2018-07-10T17:21:24.437Z,0.90
2018-07-10T17:23:53.085Z,1.13
2018-07-10T17:26:20.549Z,1.00
2018-07-10T17:28:48.533Z,1.00
2018-07-10T17:31:15.943Z,0.80
2018-07-10T17:33:43.356Z,0.67
2018-07-10T17:36:10.709Z,0.80
2018-07-10T17:38:38.187Z,1.20
2018-07-10T17:41:07.820Z,1.20
2018-07-10T17:43:35.425Z,1.27
2018-07-10T17:46:02.963Z,1.00
2018-07-10T17:48:30.341Z,1.30
2018-07-10T17:50:57.872Z,1.00
2018-07-10T17:53:25.329Z,0.90
2018-07-10T17:55:53.150Z,1.53
2018-07-10T17:58:22.003Z,1.43
2018-07-10T18:00:50.322Z,1.20
2018-07-10T18:03:17.727Z,1.20
2018-07-10T18:05:45.307Z,1.50
2018-07-10T18:08:13.199Z,1.60
2018-07-10T18:10:41.929Z,1.73
2018-07-10T18:13:10.000Z,1.63
2018-07-10T18:15:38.890Z,1.50
2018-07-10T18:18:06.568Z,1.60
2018-07-10T18:20:35.324Z,2.00
2018-07-10T18:23:03.534Z,2.10
2018-07-10T18:25:31.150Z,2.20
2018-07-10T18:27:59.378Z,2.10
2018-07-10T18:30:26.887Z,2.20
2018-07-10T18:32:55.691Z,2.43
2018-07-10T18:35:23.320Z,2.23
2018-07-10T18:37:52.661Z,2.33
2018-07-10T18:40:20.383Z,2.50
2018-07-10T18:42:48.026Z,2.57
2018-07-10T18:45:15.673Z,2.53
2018-07-10T18:47:44.586Z,2.67
2018-07-10T18:50:12.562Z,2.60
2018-07-10T18:52:40.116Z,3.90
2018-07-10T18:55:07.853Z,3.57
2018-07-10T18:59:46.765Z,2.20
2018-07-10T19:02:20.238Z,2.67
2018-07-10T19:04:51.589Z,3.27
2018-07-10T19:07:19.342Z,2.60
2018-07-10T19:09:47.001Z,2.90
2018-07-10T19:12:14.570Z,2.60
2018-07-10T19:14:42.700Z,2.60
2018-07-10T19:17:14.398Z,3.20
2018-07-10T19:19:46.838Z,2.67
2018-07-10T19:22:15.843Z,2.83
2018-07-10T19:24:43.346Z,2.53
2018-07-10T19:27:32.030Z,2.70
2018-07-10T19:30:05.659Z,2.70
2018-07-10T19:32:33.500Z,3.50
2018-07-10T19:35:01.438Z,3.27
2018-07-10T19:37:30.618Z,3.10
2018-07-10T19:39:58.102Z,3.60
2018-07-10T19:42:26.209Z,3.57
2018-07-10T19:44:53.604Z,4.13
2018-07-10T19:47:22.410Z,4.17
2018-07-10T19:49:50.434Z,3.97
2018-07-10T19:52:19.313Z,3.60
2018-07-10T19:54:47.313Z,3.77
2018-07-10T19:59:26.704Z,3.70
2018-07-10T20:02:00.663Z,3.57
2018-07-10T20:04:46.922Z,3.57
2018-07-10T20:07:26.385Z,4.27
2018-07-10T20:09:57.472Z,4.23
2018-07-10T20:12:30.258Z,4.33
2018-07-10T20:15:06.822Z,4.13
2018-07-10T20:17:38.224Z,4.20
2018-07-10T20:20:10.578Z,3.67
2018-07-10T20:23:19.817Z,4.63
2018-07-10T20:26:27.459Z,4.10
2018-07-10T20:29:04.691Z,4.37
2018-07-10T20:31:41.310Z,4.23
2018-07-10T20:34:21.566Z,3.77
2018-07-10T20:36:55.530Z,3.70
2018-07-10T20:39:35.276Z,4.20
2018-07-10T20:42:02.706Z,3.87
2018-07-10T20:44:31.793Z,4.63
2018-07-10T20:47:02.066Z,4.07
2018-07-10T20:49:38.454Z,4.20
2018-07-10T20:52:06.862Z,4.10
2018-07-10T20:54:41.061Z,4.50
2018-07-10T20:57:18.578Z,4.47
2018-07-10T20:59:46.002Z,4.20
2018-07-10T21:02:26.660Z,4.47
2018-07-10T21:05:14.626Z,4.63
2018-07-10T21:07:52.043Z,4.30
2018-07-10T21:10:28.954Z,3.80
2018-07-10T21:13:04.029Z,3.87
2018-07-10T21:15:45.957Z,3.40
2018-07-10T21:18:24.905Z,3.20
2018-07-10T21:20:59.406Z,3.27
2018-07-10T21:24:35.814Z,3.40
2018-07-10T21:27:05.778Z,3.37
2018-07-10T21:30:43.263Z,3.33
2018-07-10T21:33:49.787Z,3.43
2018-07-10T21:36:19.269Z,3.50
2018-07-10T21:39:01.795Z,3.80
2018-07-10T21:41:39.987Z,3.77
2018-07-10T21:45:21.425Z,4.40
2018-07-10T21:49:57.050Z,3.73
2018-07-10T21:52:24.814Z,3.43
2018-07-10T21:54:52.116Z,4.40
2018-07-10T21:57:25.882Z,3.87
2018-07-10T21:59:55.137Z,4.67
2018-07-10T22:02:22.657Z,4.23
2018-07-10T22:04:53.281Z,4.40
2018-07-10T22:07:20.899Z,4.53
2018-07-10T22:09:48.389Z,3.90
2018-07-10T22:12:19.005Z,4.03
2018-07-10T22:14:46.443Z,4.17
2018-07-10T22:17:18.959Z,4.27
2018-07-10T22:19:47.243Z,4.43
2018-07-10T22:22:18.799Z,4.60
2018-07-10T22:24:47.027Z,4.83
2018-07-10T22:27:14.311Z,4.60
2018-07-10T22:29:47.188Z,3.93
2018-07-10T22:32:20.238Z,4.70
2018-07-10T22:34:47.525Z,5.30
2018-07-10T22:37:14.843Z,5.03
2018-07-10T22:39:42.623Z,5.60
2018-07-10T22:42:09.940Z,5.07
2018-07-10T22:44:40.431Z,5.07
2018-07-10T22:47:07.781Z,5.37
2018-07-10T22:49:35.050Z,5.47
2018-07-10T22:52:03.186Z,5.33
2018-07-10T22:54:32.680Z,5.53
2018-07-10T22:56:59.999Z,5.77
2018-07-10T22:59:27.537Z,6.10
2018-07-10T23:01:54.808Z,5.80
2018-07-10T23:04:22.099Z,5.83
2018-07-10T23:06:49.367Z,6.17
2018-07-10T23:09:16.732Z,5.57
2018-07-10T23:11:44.061Z,6.07
2018-07-10T23:14:11.398Z,5.70
2018-07-10T23:16:39.806Z,6.23
2018-07-10T23:19:07.443Z,4.97
2018-07-10T23:21:36.286Z,5.37
2018-07-10T23:24:03.611Z,5.97
2018-07-10T23:26:31.130Z,5.23
2018-07-10T23:28:58.482Z,5.57
2018-07-10T23:31:27.947Z,5.10
2018-07-10T23:34:01.854Z,5.67
2018-07-10T23:36:29.163Z,5.30
2018-07-10T23:39:12.264Z,5.67
2018-07-10T23:42:29.060Z,6.90
2018-07-10T23:44:59.326Z,6.53
2018-07-10T23:47:29.690Z,6.80
2018-07-10T23:50:18.079Z,6.70
2018-07-10T23:53:01.262Z,5.50
2018-07-10T23:55:28.574Z,5.93
2018-07-10T23:57:55.833Z,5.70
